sensor_id;sensor_type;location;lat;lon;timestamp;P1;durP1;ratioP1;P2;durP2;ratioP2
21352;SDS011;10834;52.268;6.770;2023-08-12T00:00:25;10.68;;;8.43;;
21352;SDS011;10834;52.268;6.770;2023-08-12T00:03:11;10.65;;;7.97;;
21352;SDS011;10834;52.268;6.770;2023-08-12T00:05:57;13.02;;;7.40;;
21352;SDS011;10834;52.268;6.770;2023-08-12T00:08:45;11.88;;;7.40;;
21352;SDS011;10834;52.268;6.770;2023-08-12T00:11:31;9.43;;;7.88;;
21352;SDS011;10834;52.268;6.770;2023-08-12T00:14:17;10.48;;;7.72;;
21352;SDS011;10834;52.268;6.770;2023-08-12T00:17:04;10.88;;;8.00;;
21352;SDS011;10834;52.268;6.770;2023-08-12T00:19:50;14.90;;;7.68;;
21352;SDS011;10834;52.268;6.770;2023-08-12T00:22:36;10.30;;;7.78;;
21352;SDS011;10834;52.268;6.770;2023-08-12T00:25:23;12.07;;;8.50;;
21352;SDS011;10834;52.268;6.770;2023-08-12T00:28:09;14.65;;;10.10;;
21352;SDS011;10834;52.268;6.770;2023-08-12T00:30:56;10.38;;;7.82;;
21352;SDS011;10834;52.268;6.770;2023-08-12T00:33:42;12.10;;;9.00;;
21352;SDS011;10834;52.268;6.770;2023-08-12T00:36:28;11.25;;;7.40;;
21352;SDS011;10834;52.268;6.770;2023-08-12T00:39:14;8.90;;;6.97;;
21352;SDS011;10834;52.268;6.770;2023-08-12T00:42:00;14.38;;;9.40;;
21352;SDS011;10834;52.268;6.770;2023-08-12T00:44:46;13.57;;;8.48;;
21352;SDS011;10834;52.268;6.770;2023-08-12T00:47:32;16.17;;;9.00;;
21352;SDS011;10834;52.268;6.770;2023-08-12T00:50:18;10.32;;;7.88;;
21352;SDS011;10834;52.268;6.770;2023-08-12T00:53:05;12.60;;;9.63;;
21352;SDS011;10834;52.268;6.770;2023-08-12T00:55:51;14.30;;;9.05;;
21352;SDS011;10834;52.268;6.770;2023-08-12T00:58:38;10.90;;;8.63;;
21352;SDS011;10834;52.268;6.770;2023-08-12T01:01:25;17.30;;;11.90;;
21352;SDS011;10834;52.268;6.770;2023-08-12T01:04:11;19.50;;;11.98;;
21352;SDS011;10834;52.268;6.770;2023-08-12T01:06:57;19.08;;;11.93;;
21352;SDS011;10834;52.268;6.770;2023-08-12T01:09:43;19.33;;;10.93;;
21352;SDS011;10834;52.268;6.770;2023-08-12T01:12:32;18.98;;;13.35;;
21352;SDS011;10834;52.268;6.770;2023-08-12T01:15:23;16.48;;;12.95;;
21352;SDS011;10834;52.268;6.770;2023-08-12T01:18:11;21.80;;;12.95;;
21352;SDS011;10834;52.268;6.770;2023-08-12T01:20:59;20.05;;;13.63;;
21352;SDS011;10834;52.268;6.770;2023-08-12T01:23:49;17.38;;;13.95;;
21352;SDS011;10834;52.268;6.770;2023-08-12T01:26:35;20.90;;;14.40;;
21352;SDS011;10834;52.268;6.770;2023-08-12T01:29:21;18.77;;;13.95;;
21352;SDS011;10834;52.268;6.770;2023-08-12T01:32:08;22.20;;;14.10;;
21352;SDS011;10834;52.268;6.770;2023-08-12T01:35:08;25.60;;;16.85;;
21352;SDS011;10834;52.268;6.770;2023-08-12T01:38:03;22.33;;;15.40;;
21352;SDS011;10834;52.268;6.770;2023-08-12T01:40:51;19.10;;;15.13;;
21352;SDS011;10834;52.268;6.770;2023-08-12T01:43:38;19.80;;;16.65;;
21352;SDS011;10834;52.268;6.770;2023-08-12T01:46:25;24.38;;;16.33;;
21352;SDS011;10834;52.268;6.770;2023-08-12T01:49:11;22.35;;;15.15;;
21352;SDS011;10834;52.268;6.770;2023-08-12T01:51:57;22.25;;;16.55;;
21352;SDS011;10834;52.268;6.770;2023-08-12T01:54:43;22.73;;;16.15;;
21352;SDS011;10834;52.268;6.770;2023-08-12T01:57:29;19.90;;;15.05;;
21352;SDS011;10834;52.268;6.770;2023-08-12T02:00:15;20.10;;;16.20;;
21352;SDS011;10834;52.268;6.770;2023-08-12T02:03:02;18.27;;;15.13;;
21352;SDS011;10834;52.268;6.770;2023-08-12T02:05:48;17.92;;;14.93;;
21352;SDS011;10834;52.268;6.770;2023-08-12T02:08:34;22.80;;;17.70;;
21352;SDS011;10834;52.268;6.770;2023-08-12T02:11:20;21.90;;;15.57;;
21352;SDS011;10834;52.268;6.770;2023-08-12T02:14:06;22.48;;;16.70;;
21352;SDS011;10834;52.268;6.770;2023-08-12T02:16:52;22.42;;;17.00;;
21352;SDS011;10834;52.268;6.770;2023-08-12T02:19:38;29.90;;;18.10;;
21352;SDS011;10834;52.268;6.770;2023-08-12T02:22:24;25.30;;;18.85;;
21352;SDS011;10834;52.268;6.770;2023-08-12T02:25:10;21.85;;;16.45;;
21352;SDS011;10834;52.268;6.770;2023-08-12T02:27:57;27.55;;;17.65;;
21352;SDS011;10834;52.268;6.770;2023-08-12T02:30:43;22.55;;;17.40;;
21352;SDS011;10834;52.268;6.770;2023-08-12T02:33:29;21.95;;;16.95;;
21352;SDS011;10834;52.268;6.770;2023-08-12T02:36:15;23.08;;;17.77;;
21352;SDS011;10834;52.268;6.770;2023-08-12T02:39:01;25.45;;;18.63;;
21352;SDS011;10834;52.268;6.770;2023-08-12T02:41:47;22.55;;;17.90;;
21352;SDS011;10834;52.268;6.770;2023-08-12T02:44:33;24.88;;;18.67;;
21352;SDS011;10834;52.268;6.770;2023-08-12T02:47:20;27.13;;;19.15;;
21352;SDS011;10834;52.268;6.770;2023-08-12T02:50:06;22.20;;;17.17;;
21352;SDS011;10834;52.268;6.770;2023-08-12T02:52:53;23.20;;;18.73;;
21352;SDS011;10834;52.268;6.770;2023-08-12T02:55:39;25.98;;;19.55;;
21352;SDS011;10834;52.268;6.770;2023-08-12T02:58:25;27.08;;;18.63;;
21352;SDS011;10834;52.268;6.770;2023-08-12T03:01:11;26.25;;;19.80;;
21352;SDS011;10834;52.268;6.770;2023-08-12T03:03:57;30.55;;;19.55;;
21352;SDS011;10834;52.268;6.770;2023-08-12T03:06:43;24.85;;;18.80;;
21352;SDS011;10834;52.268;6.770;2023-08-12T03:09:29;23.52;;;19.23;;
21352;SDS011;10834;52.268;6.770;2023-08-12T03:12:15;25.50;;;19.45;;
21352;SDS011;10834;52.268;6.770;2023-08-12T03:15:02;22.95;;;18.48;;
21352;SDS011;10834;52.268;6.770;2023-08-12T03:17:48;22.17;;;19.00;;
21352;SDS011;10834;52.268;6.770;2023-08-12T03:20:34;25.48;;;20.58;;
21352;SDS011;10834;52.268;6.770;2023-08-12T03:23:22;24.73;;;19.75;;
21352;SDS011;10834;52.268;6.770;2023-08-12T03:26:08;21.77;;;17.60;;
21352;SDS011;10834;52.268;6.770;2023-08-12T03:28:54;23.95;;;19.30;;
21352;SDS011;10834;52.268;6.770;2023-08-12T03:31:40;22.17;;;18.10;;
21352;SDS011;10834;52.268;6.770;2023-08-12T03:34:27;22.77;;;18.00;;
21352;SDS011;10834;52.268;6.770;2023-08-12T03:37:15;24.60;;;18.75;;
21352;SDS011;10834;52.268;6.770;2023-08-12T03:40:01;26.95;;;19.58;;
21352;SDS011;10834;52.268;6.770;2023-08-12T03:42:47;23.67;;;18.63;;
21352;SDS011;10834;52.268;6.770;2023-08-12T03:45:39;22.05;;;17.02;;
21352;SDS011;10834;52.268;6.770;2023-08-12T03:48:26;22.42;;;16.77;;
21352;SDS011;10834;52.268;6.770;2023-08-12T03:51:12;18.67;;;16.30;;
21352;SDS011;10834;52.268;6.770;2023-08-12T03:53:59;20.10;;;16.27;;
21352;SDS011;10834;52.268;6.770;2023-08-12T03:56:45;21.77;;;17.63;;
21352;SDS011;10834;52.268;6.770;2023-08-12T03:59:31;21.17;;;16.88;;
21352;SDS011;10834;52.268;6.770;2023-08-12T04:02:17;22.42;;;16.73;;
21352;SDS011;10834;52.268;6.770;2023-08-12T04:05:03;20.27;;;16.13;;
21352;SDS011;10834;52.268;6.770;2023-08-12T04:07:49;19.25;;;16.10;;
21352;SDS011;10834;52.268;6.770;2023-08-12T04:10:35;17.92;;;14.32;;
21352;SDS011;10834;52.268;6.770;2023-08-12T04:13:21;20.80;;;16.98;;
21352;SDS011;10834;52.268;6.770;2023-08-12T04:16:07;20.65;;;15.57;;
21352;SDS011;10834;52.268;6.770;2023-08-12T04:18:53;23.13;;;15.60;;
21352;SDS011;10834;52.268;6.770;2023-08-12T04:21:40;22.48;;;15.38;;
21352;SDS011;10834;52.268;6.770;2023-08-12T04:24:25;19.20;;;15.40;;
21352;SDS011;10834;52.268;6.770;2023-08-12T04:27:11;20.52;;;16.45;;
21352;SDS011;10834;52.268;6.770;2023-08-12T04:29:58;25.45;;;16.55;;
21352;SDS011;10834;52.268;6.770;2023-08-12T04:32:44;22.30;;;16.33;;
21352;SDS011;10834;52.268;6.770;2023-08-12T04:35:31;20.73;;;16.02;;
21352;SDS011;10834;52.268;6.770;2023-08-12T04:38:17;24.25;;;15.95;;
21352;SDS011;10834;52.268;6.770;2023-08-12T04:41:03;20.15;;;14.90;;
21352;SDS011;10834;52.268;6.770;2023-08-12T04:43:49;25.80;;;17.70;;
21352;SDS011;10834;52.268;6.770;2023-08-12T04:46:36;20.00;;;16.00;;
21352;SDS011;10834;52.268;6.770;2023-08-12T04:49:22;16.40;;;14.63;;
21352;SDS011;10834;52.268;6.770;2023-08-12T04:52:09;22.65;;;16.95;;
21352;SDS011;10834;52.268;6.770;2023-08-12T04:54:55;24.02;;;15.25;;
21352;SDS011;10834;52.268;6.770;2023-08-12T04:57:41;20.85;;;15.88;;
21352;SDS011;10834;52.268;6.770;2023-08-12T05:00:27;19.58;;;14.70;;
21352;SDS011;10834;52.268;6.770;2023-08-12T05:03:13;18.65;;;14.57;;
21352;SDS011;10834;52.268;6.770;2023-08-12T05:05:59;20.05;;;14.73;;
21352;SDS011;10834;52.268;6.770;2023-08-12T05:08:46;21.15;;;15.38;;
21352;SDS011;10834;52.268;6.770;2023-08-12T05:11:32;18.33;;;14.50;;
21352;SDS011;10834;52.268;6.770;2023-08-12T05:14:18;17.90;;;13.95;;
21352;SDS011;10834;52.268;6.770;2023-08-12T05:17:04;21.65;;;14.45;;
21352;SDS011;10834;52.268;6.770;2023-08-12T05:19:51;18.55;;;13.07;;
21352;SDS011;10834;52.268;6.770;2023-08-12T05:22:37;16.02;;;12.93;;
21352;SDS011;10834;52.268;6.770;2023-08-12T05:25:23;21.92;;;13.13;;
21352;SDS011;10834;52.268;6.770;2023-08-12T05:28:09;20.05;;;13.50;;
21352;SDS011;10834;52.268;6.770;2023-08-12T05:30:55;19.50;;;12.48;;
21352;SDS011;10834;52.268;6.770;2023-08-12T05:33:41;16.73;;;12.57;;
21352;SDS011;10834;52.268;6.770;2023-08-12T05:36:27;18.25;;;13.00;;
21352;SDS011;10834;52.268;6.770;2023-08-12T05:39:13;18.40;;;13.05;;
21352;SDS011;10834;52.268;6.770;2023-08-12T05:42:00;14.40;;;12.05;;
21352;SDS011;10834;52.268;6.770;2023-08-12T05:44:46;18.35;;;11.82;;
21352;SDS011;10834;52.268;6.770;2023-08-12T05:47:32;16.33;;;12.25;;
21352;SDS011;10834;52.268;6.770;2023-08-12T05:50:19;13.55;;;11.15;;
21352;SDS011;10834;52.268;6.770;2023-08-12T05:53:04;16.55;;;13.05;;
21352;SDS011;10834;52.268;6.770;2023-08-12T05:55:51;18.23;;;11.05;;
21352;SDS011;10834;52.268;6.770;2023-08-12T05:58:37;18.08;;;12.05;;
21352;SDS011;10834;52.268;6.770;2023-08-12T06:01:23;14.20;;;11.57;;
21352;SDS011;10834;52.268;6.770;2023-08-12T06:04:09;19.45;;;12.45;;
21352;SDS011;10834;52.268;6.770;2023-08-12T06:06:55;18.17;;;11.93;;
21352;SDS011;10834;52.268;6.770;2023-08-12T06:09:41;18.02;;;13.20;;
21352;SDS011;10834;52.268;6.770;2023-08-12T06:12:27;17.10;;;12.32;;
21352;SDS011;10834;52.268;6.770;2023-08-12T06:15:13;15.93;;;11.18;;
21352;SDS011;10834;52.268;6.770;2023-08-12T06:17:59;13.80;;;10.68;;
21352;SDS011;10834;52.268;6.770;2023-08-12T06:20:46;20.70;;;12.18;;
21352;SDS011;10834;52.268;6.770;2023-08-12T06:23:32;14.80;;;11.75;;
21352;SDS011;10834;52.268;6.770;2023-08-12T06:26:18;16.60;;;10.88;;
21352;SDS011;10834;52.268;6.770;2023-08-12T06:29:04;16.52;;;11.52;;
21352;SDS011;10834;52.268;6.770;2023-08-12T06:31:51;15.80;;;12.25;;
21352;SDS011;10834;52.268;6.770;2023-08-12T06:34:38;16.77;;;12.70;;
21352;SDS011;10834;52.268;6.770;2023-08-12T06:37:24;14.88;;;12.93;;
21352;SDS011;10834;52.268;6.770;2023-08-12T06:40:10;22.38;;;13.80;;
21352;SDS011;10834;52.268;6.770;2023-08-12T06:42:56;16.73;;;13.70;;
21352;SDS011;10834;52.268;6.770;2023-08-12T06:45:42;19.25;;;14.57;;
21352;SDS011;10834;52.268;6.770;2023-08-12T06:48:28;17.58;;;13.40;;
21352;SDS011;10834;52.268;6.770;2023-08-12T06:51:14;19.00;;;15.38;;
21352;SDS011;10834;52.268;6.770;2023-08-12T06:54:00;20.80;;;16.15;;
21352;SDS011;10834;52.268;6.770;2023-08-12T06:56:46;20.42;;;15.23;;
21352;SDS011;10834;52.268;6.770;2023-08-12T06:59:33;26.25;;;15.63;;
21352;SDS011;10834;52.268;6.770;2023-08-12T07:02:19;20.23;;;14.57;;
21352;SDS011;10834;52.268;6.770;2023-08-12T07:05:05;25.00;;;16.10;;
21352;SDS011;10834;52.268;6.770;2023-08-12T07:07:51;27.45;;;16.52;;
21352;SDS011;10834;52.268;6.770;2023-08-12T07:10:40;26.67;;;15.77;;
21352;SDS011;10834;52.268;6.770;2023-08-12T07:13:27;21.73;;;15.65;;
21352;SDS011;10834;52.268;6.770;2023-08-12T07:16:13;20.13;;;15.15;;
21352;SDS011;10834;52.268;6.770;2023-08-12T07:18:59;23.58;;;17.10;;
21352;SDS011;10834;52.268;6.770;2023-08-12T07:21:45;24.85;;;15.88;;
21352;SDS011;10834;52.268;6.770;2023-08-12T07:24:31;26.95;;;18.05;;
21352;SDS011;10834;52.268;6.770;2023-08-12T07:27:17;26.65;;;18.95;;
21352;SDS011;10834;52.268;6.770;2023-08-12T07:30:03;30.25;;;19.42;;
21352;SDS011;10834;52.268;6.770;2023-08-12T07:32:49;33.42;;;19.95;;
21352;SDS011;10834;52.268;6.770;2023-08-12T07:35:35;28.38;;;20.38;;
21352;SDS011;10834;52.268;6.770;2023-08-12T07:38:21;38.13;;;21.85;;
21352;SDS011;10834;52.268;6.770;2023-08-12T07:41:08;31.00;;;21.02;;
21352;SDS011;10834;52.268;6.770;2023-08-12T07:43:54;33.15;;;21.83;;
21352;SDS011;10834;52.268;6.770;2023-08-12T07:46:40;31.83;;;21.30;;
21352;SDS011;10834;52.268;6.770;2023-08-12T07:49:26;29.30;;;20.75;;
21352;SDS011;10834;52.268;6.770;2023-08-12T07:52:12;32.15;;;21.88;;
21352;SDS011;10834;52.268;6.770;2023-08-12T07:54:58;27.63;;;19.65;;
21352;SDS011;10834;52.268;6.770;2023-08-12T07:57:44;25.42;;;20.52;;
21352;SDS011;10834;52.268;6.770;2023-08-12T08:00:32;32.92;;;21.35;;
21352;SDS011;10834;52.268;6.770;2023-08-12T08:03:19;32.65;;;19.98;;
21352;SDS011;10834;52.268;6.770;2023-08-12T08:06:05;22.30;;;16.67;;
21352;SDS011;10834;52.268;6.770;2023-08-12T08:08:51;25.92;;;18.83;;
21352;SDS011;10834;52.268;6.770;2023-08-12T08:11:37;27.95;;;20.23;;
21352;SDS011;10834;52.268;6.770;2023-08-12T08:14:23;25.75;;;20.05;;
21352;SDS011;10834;52.268;6.770;2023-08-12T08:17:09;24.98;;;20.15;;
21352;SDS011;10834;52.268;6.770;2023-08-12T08:19:55;26.98;;;19.75;;
21352;SDS011;10834;52.268;6.770;2023-08-12T08:22:41;27.48;;;19.75;;
21352;SDS011;10834;52.268;6.770;2023-08-12T08:25:27;25.60;;;19.83;;
21352;SDS011;10834;52.268;6.770;2023-08-12T08:28:13;19.27;;;14.75;;
21352;SDS011;10834;52.268;6.770;2023-08-12T08:30:59;17.85;;;13.25;;
21352;SDS011;10834;52.268;6.770;2023-08-12T08:33:45;22.38;;;14.77;;
21352;SDS011;10834;52.268;6.770;2023-08-12T08:36:31;20.52;;;15.40;;
21352;SDS011;10834;52.268;6.770;2023-08-12T08:39:17;19.13;;;14.90;;
21352;SDS011;10834;52.268;6.770;2023-08-12T08:42:04;16.65;;;14.68;;
21352;SDS011;10834;52.268;6.770;2023-08-12T08:44:52;23.85;;;15.77;;
21352;SDS011;10834;52.268;6.770;2023-08-12T08:47:39;20.67;;;14.98;;
21352;SDS011;10834;52.268;6.770;2023-08-12T08:50:26;14.27;;;12.43;;
21352;SDS011;10834;52.268;6.770;2023-08-12T08:53:15;14.10;;;12.05;;
21352;SDS011;10834;52.268;6.770;2023-08-12T08:56:07;17.27;;;13.20;;
21352;SDS011;10834;52.268;6.770;2023-08-12T08:58:56;14.82;;;13.18;;
21352;SDS011;10834;52.268;6.770;2023-08-12T09:01:43;13.63;;;11.77;;
21352;SDS011;10834;52.268;6.770;2023-08-12T09:04:32;15.48;;;10.40;;
21352;SDS011;10834;52.268;6.770;2023-08-12T09:07:19;11.63;;;10.32;;
21352;SDS011;10834;52.268;6.770;2023-08-12T09:10:06;15.93;;;10.65;;
21352;SDS011;10834;52.268;6.770;2023-08-12T09:12:56;12.98;;;10.50;;
21352;SDS011;10834;52.268;6.770;2023-08-12T09:15:42;12.32;;;9.82;;
21352;SDS011;10834;52.268;6.770;2023-08-12T09:18:29;11.90;;;9.90;;
21352;SDS011;10834;52.268;6.770;2023-08-12T09:21:15;10.95;;;9.77;;
21352;SDS011;10834;52.268;6.770;2023-08-12T09:24:04;11.18;;;10.18;;
21352;SDS011;10834;52.268;6.770;2023-08-12T09:26:51;12.52;;;11.32;;
21352;SDS011;10834;52.268;6.770;2023-08-12T09:29:37;13.75;;;12.38;;
21352;SDS011;10834;52.268;6.770;2023-08-12T09:32:23;12.55;;;11.25;;
21352;SDS011;10834;52.268;6.770;2023-08-12T09:35:15;12.77;;;11.55;;
21352;SDS011;10834;52.268;6.770;2023-08-12T09:38:05;12.02;;;10.75;;
21352;SDS011;10834;52.268;6.770;2023-08-12T09:40:53;11.63;;;10.27;;
21352;SDS011;10834;52.268;6.770;2023-08-12T09:43:40;11.85;;;10.65;;
21352;SDS011;10834;52.268;6.770;2023-08-12T09:46:28;10.73;;;9.63;;
21352;SDS011;10834;52.268;6.770;2023-08-12T09:49:14;10.88;;;9.88;;
21352;SDS011;10834;52.268;6.770;2023-08-12T09:52:03;12.70;;;11.50;;
21352;SDS011;10834;52.268;6.770;2023-08-12T09:54:50;11.02;;;10.02;;
21352;SDS011;10834;52.268;6.770;2023-08-12T09:57:39;11.32;;;10.25;;
21352;SDS011;10834;52.268;6.770;2023-08-12T10:00:29;8.43;;;7.72;;
21352;SDS011;10834;52.268;6.770;2023-08-12T10:03:15;8.73;;;7.93;;
21352;SDS011;10834;52.268;6.770;2023-08-12T10:06:04;9.63;;;8.60;;
21352;SDS011;10834;52.268;6.770;2023-08-12T10:08:51;7.28;;;6.68;;
21352;SDS011;10834;52.268;6.770;2023-08-12T10:11:38;7.55;;;6.95;;
21352;SDS011;10834;52.268;6.770;2023-08-12T10:14:25;8.48;;;7.80;;
21352;SDS011;10834;52.268;6.770;2023-08-12T10:17:11;7.32;;;6.65;;
21352;SDS011;10834;52.268;6.770;2023-08-12T10:19:58;7.63;;;6.93;;
21352;SDS011;10834;52.268;6.770;2023-08-12T10:22:50;7.35;;;6.75;;
21352;SDS011;10834;52.268;6.770;2023-08-12T10:25:37;7.55;;;6.93;;
21352;SDS011;10834;52.268;6.770;2023-08-12T10:28:26;6.28;;;5.75;;
21352;SDS011;10834;52.268;6.770;2023-08-12T10:31:14;6.88;;;5.68;;
21352;SDS011;10834;52.268;6.770;2023-08-12T10:34:00;6.97;;;6.30;;
21352;SDS011;10834;52.268;6.770;2023-08-12T10:36:47;5.88;;;5.00;;
21352;SDS011;10834;52.268;6.770;2023-08-12T10:39:39;5.68;;;4.25;;
21352;SDS011;10834;52.268;6.770;2023-08-12T10:42:45;5.40;;;4.65;;
21352;SDS011;10834;52.268;6.770;2023-08-12T10:49:10;4.82;;;4.43;;
21352;SDS011;10834;52.268;6.770;2023-08-12T10:51:56;4.80;;;4.40;;
21352;SDS011;10834;52.268;6.770;2023-08-12T10:54:42;6.10;;;5.50;;
21352;SDS011;10834;52.268;6.770;2023-08-12T10:57:35;5.07;;;4.68;;
21352;SDS011;10834;52.268;6.770;2023-08-12T11:00:25;4.85;;;4.45;;
21352;SDS011;10834;52.268;6.770;2023-08-12T11:03:12;5.50;;;5.10;;
21352;SDS011;10834;52.268;6.770;2023-08-12T11:05:59;5.10;;;4.60;;
21352;SDS011;10834;52.268;6.770;2023-08-12T11:08:51;4.47;;;4.13;;
21352;SDS011;10834;52.268;6.770;2023-08-12T11:11:38;3.95;;;3.65;;
21352;SDS011;10834;52.268;6.770;2023-08-12T11:14:25;4.10;;;3.80;;
21352;SDS011;10834;52.268;6.770;2023-08-12T11:17:14;4.38;;;3.67;;
21352;SDS011;10834;52.268;6.770;2023-08-12T11:20:01;3.92;;;3.63;;
21352;SDS011;10834;52.268;6.770;2023-08-12T11:22:49;5.57;;;2.92;;
21352;SDS011;10834;52.268;6.770;2023-08-12T11:25:37;3.38;;;3.00;;
21352;SDS011;10834;52.268;6.770;2023-08-12T11:28:24;3.97;;;3.53;;
21352;SDS011;10834;52.268;6.770;2023-08-12T11:31:10;2.30;;;2.20;;
21352;SDS011;10834;52.268;6.770;2023-08-12T11:33:57;2.35;;;2.15;;
21352;SDS011;10834;52.268;6.770;2023-08-12T11:36:43;1.80;;;1.70;;
21352;SDS011;10834;52.268;6.770;2023-08-12T11:39:29;2.55;;;1.60;;
21352;SDS011;10834;52.268;6.770;2023-08-12T11:42:15;1.60;;;1.50;;
21352;SDS011;10834;52.268;6.770;2023-08-12T11:45:02;1.77;;;1.67;;
21352;SDS011;10834;52.268;6.770;2023-08-12T11:47:49;2.03;;;1.45;;
21352;SDS011;10834;52.268;6.770;2023-08-12T11:50:38;1.80;;;1.70;;
21352;SDS011;10834;52.268;6.770;2023-08-12T11:53:25;1.38;;;1.27;;
21352;SDS011;10834;52.268;6.770;2023-08-12T11:56:11;1.58;;;1.17;;
21352;SDS011;10834;52.268;6.770;2023-08-12T11:58:57;1.77;;;1.30;;
21352;SDS011;10834;52.268;6.770;2023-08-12T12:01:49;0.90;;;0.90;;
21352;SDS011;10834;52.268;6.770;2023-08-12T12:04:35;1.10;;;1.00;;
21352;SDS011;10834;52.268;6.770;2023-08-12T12:07:23;2.15;;;0.63;;
21352;SDS011;10834;52.268;6.770;2023-08-12T12:10:13;1.92;;;0.60;;
21352;SDS011;10834;52.268;6.770;2023-08-12T12:13:03;0.65;;;0.65;;
21352;SDS011;10834;52.268;6.770;2023-08-12T12:15:50;0.77;;;0.75;;
21352;SDS011;10834;52.268;6.770;2023-08-12T12:18:38;0.70;;;0.70;;
21352;SDS011;10834;52.268;6.770;2023-08-12T12:21:24;0.70;;;0.70;;
21352;SDS011;10834;52.268;6.770;2023-08-12T12:24:10;1.42;;;1.10;;
21352;SDS011;10834;52.268;6.770;2023-08-12T12:26:56;1.40;;;0.90;;
21352;SDS011;10834;52.268;6.770;2023-08-12T12:29:43;1.33;;;1.23;;
21352;SDS011;10834;52.268;6.770;2023-08-12T12:32:29;0.70;;;0.70;;
21352;SDS011;10834;52.268;6.770;2023-08-12T12:35:14;0.57;;;0.57;;
21352;SDS011;10834;52.268;6.770;2023-08-12T12:38:01;1.88;;;0.88;;
21352;SDS011;10834;52.268;6.770;2023-08-12T12:40:47;2.08;;;0.98;;
21352;SDS011;10834;52.268;6.770;2023-08-12T12:43:33;1.63;;;0.95;;
21352;SDS011;10834;52.268;6.770;2023-08-12T12:46:19;1.35;;;0.93;;
21352;SDS011;10834;52.268;6.770;2023-08-12T12:49:05;0.77;;;0.77;;
21352;SDS011;10834;52.268;6.770;2023-08-12T12:51:52;1.10;;;1.00;;
21352;SDS011;10834;52.268;6.770;2023-08-12T12:54:38;2.63;;;0.93;;
21352;SDS011;10834;52.268;6.770;2023-08-12T12:57:24;2.58;;;0.90;;
21352;SDS011;10834;52.268;6.770;2023-08-12T13:00:10;1.65;;;0.85;;
21352;SDS011;10834;52.268;6.770;2023-08-12T13:02:57;1.73;;;1.05;;
21352;SDS011;10834;52.268;6.770;2023-08-12T13:05:43;3.10;;;1.02;;
21352;SDS011;10834;52.268;6.770;2023-08-12T13:08:29;2.80;;;1.08;;
21352;SDS011;10834;52.268;6.770;2023-08-12T13:11:17;1.25;;;1.00;;
21352;SDS011;10834;52.268;6.770;2023-08-12T13:14:03;2.58;;;1.70;;
21352;SDS011;10834;52.268;6.770;2023-08-12T13:16:49;4.55;;;3.40;;
21352;SDS011;10834;52.268;6.770;2023-08-12T13:19:35;1.95;;;1.38;;
21352;SDS011;10834;52.268;6.770;2023-08-12T13:22:21;2.75;;;2.08;;
21352;SDS011;10834;52.268;6.770;2023-08-12T13:25:07;4.57;;;1.73;;
21352;SDS011;10834;52.268;6.770;2023-08-12T13:27:54;3.20;;;1.38;;
21352;SDS011;10834;52.268;6.770;2023-08-12T13:30:40;2.92;;;1.48;;
21352;SDS011;10834;52.268;6.770;2023-08-12T13:33:26;1.40;;;1.15;;
21352;SDS011;10834;52.268;6.770;2023-08-12T13:36:12;1.83;;;1.17;;
21352;SDS011;10834;52.268;6.770;2023-08-12T13:38:58;2.03;;;1.35;;
21352;SDS011;10834;52.268;6.770;2023-08-12T13:41:44;6.53;;;2.13;;
21352;SDS011;10834;52.268;6.770;2023-08-12T13:44:30;3.03;;;1.63;;
21352;SDS011;10834;52.268;6.770;2023-08-12T13:47:16;5.35;;;1.80;;
21352;SDS011;10834;52.268;6.770;2023-08-12T13:50:03;3.03;;;2.15;;
21352;SDS011;10834;52.268;6.770;2023-08-12T13:52:49;4.95;;;1.95;;
21352;SDS011;10834;52.268;6.770;2023-08-12T13:55:35;5.13;;;1.58;;
21352;SDS011;10834;52.268;6.770;2023-08-12T13:58:21;5.75;;;2.05;;
21352;SDS011;10834;52.268;6.770;2023-08-12T14:01:07;2.20;;;1.30;;
21352;SDS011;10834;52.268;6.770;2023-08-12T14:03:54;4.45;;;1.88;;
21352;SDS011;10834;52.268;6.770;2023-08-12T14:06:40;4.80;;;1.40;;
21352;SDS011;10834;52.268;6.770;2023-08-12T14:09:26;6.78;;;1.80;;
21352;SDS011;10834;52.268;6.770;2023-08-12T14:12:12;4.40;;;1.50;;
21352;SDS011;10834;52.268;6.770;2023-08-12T14:14:58;7.35;;;1.75;;
21352;SDS011;10834;52.268;6.770;2023-08-12T14:17:44;5.70;;;2.65;;
21352;SDS011;10834;52.268;6.770;2023-08-12T14:20:30;5.18;;;1.98;;
21352;SDS011;10834;52.268;6.770;2023-08-12T14:23:16;7.88;;;1.83;;
21352;SDS011;10834;52.268;6.770;2023-08-12T14:26:02;7.20;;;3.25;;
21352;SDS011;10834;52.268;6.770;2023-08-12T14:28:48;2.33;;;1.60;;
21352;SDS011;10834;52.268;6.770;2023-08-12T14:31:34;5.65;;;1.73;;
21352;SDS011;10834;52.268;6.770;2023-08-12T14:34:20;2.83;;;1.90;;
21352;SDS011;10834;52.268;6.770;2023-08-12T14:37:06;3.25;;;1.60;;
21352;SDS011;10834;52.268;6.770;2023-08-12T14:39:53;4.47;;;1.52;;
21352;SDS011;10834;52.268;6.770;2023-08-12T14:42:39;2.65;;;2.05;;
21352;SDS011;10834;52.268;6.770;2023-08-12T14:45:25;4.65;;;2.03;;
21352;SDS011;10834;52.268;6.770;2023-08-12T14:48:11;7.93;;;1.60;;
21352;SDS011;10834;52.268;6.770;2023-08-12T14:51:00;6.68;;;1.60;;
21352;SDS011;10834;52.268;6.770;2023-08-12T14:53:46;3.25;;;1.70;;
21352;SDS011;10834;52.268;6.770;2023-08-12T14:56:33;4.15;;;1.67;;
21352;SDS011;10834;52.268;6.770;2023-08-12T14:59:19;5.38;;;1.70;;
21352;SDS011;10834;52.268;6.770;2023-08-12T15:02:05;5.50;;;2.08;;
21352;SDS011;10834;52.268;6.770;2023-08-12T15:04:53;2.95;;;1.75;;
21352;SDS011;10834;52.268;6.770;2023-08-12T15:07:39;9.40;;;2.25;;
21352;SDS011;10834;52.268;6.770;2023-08-12T15:10:25;3.28;;;1.80;;
21352;SDS011;10834;52.268;6.770;2023-08-12T15:13:14;5.47;;;1.98;;
21352;SDS011;10834;52.268;6.770;2023-08-12T15:16:00;4.88;;;2.15;;
21352;SDS011;10834;52.268;6.770;2023-08-12T15:18:46;4.82;;;1.70;;
21352;SDS011;10834;52.268;6.770;2023-08-12T15:21:32;2.50;;;1.52;;
21352;SDS011;10834;52.268;6.770;2023-08-12T15:24:18;3.70;;;1.50;;
21352;SDS011;10834;52.268;6.770;2023-08-12T15:27:04;7.00;;;2.60;;
21352;SDS011;10834;52.268;6.770;2023-08-12T15:29:50;1.77;;;1.40;;
21352;SDS011;10834;52.268;6.770;2023-08-12T15:32:37;3.42;;;1.45;;
21352;SDS011;10834;52.268;6.770;2023-08-12T15:35:23;3.13;;;1.55;;
21352;SDS011;10834;52.268;6.770;2023-08-12T15:38:09;5.53;;;2.25;;
21352;SDS011;10834;52.268;6.770;2023-08-12T15:40:55;3.40;;;1.50;;
21352;SDS011;10834;52.268;6.770;2023-08-12T15:43:41;3.97;;;1.98;;
21352;SDS011;10834;52.268;6.770;2023-08-12T15:46:28;6.90;;;1.88;;
21352;SDS011;10834;52.268;6.770;2023-08-12T15:49:14;6.28;;;1.77;;
21352;SDS011;10834;52.268;6.770;2023-08-12T15:52:00;3.90;;;1.80;;
21352;SDS011;10834;52.268;6.770;2023-08-12T15:54:48;2.72;;;1.27;;
21352;SDS011;10834;52.268;6.770;2023-08-12T15:57:34;4.18;;;1.85;;
21352;SDS011;10834;52.268;6.770;2023-08-12T16:00:21;4.35;;;1.50;;
21352;SDS011;10834;52.268;6.770;2023-08-12T16:03:07;7.18;;;2.05;;
21352;SDS011;10834;52.268;6.770;2023-08-12T16:05:56;5.72;;;1.65;;
21352;SDS011;10834;52.268;6.770;2023-08-12T16:08:43;4.60;;;1.75;;
21352;SDS011;10834;52.268;6.770;2023-08-12T16:11:31;3.75;;;1.95;;
21352;SDS011;10834;52.268;6.770;2023-08-12T16:14:17;7.22;;;1.77;;
21352;SDS011;10834;52.268;6.770;2023-08-12T16:17:03;6.65;;;2.13;;
21352;SDS011;10834;52.268;6.770;2023-08-12T16:19:53;4.50;;;1.67;;
21352;SDS011;10834;52.268;6.770;2023-08-12T16:22:39;5.50;;;1.67;;
21352;SDS011;10834;52.268;6.770;2023-08-12T16:25:26;4.88;;;1.92;;
21352;SDS011;10834;52.268;6.770;2023-08-12T16:28:12;6.60;;;1.65;;
21352;SDS011;10834;52.268;6.770;2023-08-12T16:30:58;3.85;;;2.08;;